Time;durP1;ratioP1;P1;durP2;ratioP2;P2;SDS_P1;SDS_P2;PMS_P1;PMS_P2;Temp;Humidity;BMP_temperature;BMP_pressure;BME280_temperature;BME280_humidity;BME280_pressure;Samples;Min_cycle;Max_cycle;Signal;HPM_P1;HPM_P2
2023/03/21 00:01:56;;;;;;;1.80;1.08;;;20.60;74.60;;;;;;5070157;28;20199;-63
2023/03/21 00:04:23;;;;;;;1.98;1.05;;;20.60;74.60;;;;;;5068401;28;20213;-64
2023/03/21 00:06:50;;;;;;;8.32;1.38;;;20.60;74.60;;;;;;5054090;28;20195;-65
2023/03/21 00:09:17;;;;;;;1.45;1.00;;;20.60;74.60;;;;;;5048076;28;20626;-63
2023/03/21 00:11:43;;;;;;;1.20;1.00;;;20.60;74.70;;;;;;5051785;28;20223;-66
2023/03/21 00:14:13;;;;;;;3.85;1.00;;;20.60;74.70;;;;;;5052746;28;20198;-63
2023/03/21 00:16:40;;;;;;;1.58;1.02;;;20.60;74.70;;;;;;5057981;28;20221;-64
2023/03/21 00:19:08;;;;;;;1.40;1.17;;;20.50;74.70;;;;;;5058650;28;20195;-68
2023/03/21 00:21:37;;;;;;;2.53;0.80;;;20.50;74.70;;;;;;5060365;28;20713;-63
2023/03/21 00:24:05;;;;;;;1.60;1.40;;;20.50;74.70;;;;;;5060622;28;20195;-66
2023/03/21 00:26:32;;;;;;;2.83;1.60;;;20.50;74.70;;;;;;5059056;28;20195;-63
2023/03/21 00:28:58;;;;;;;1.20;0.80;;;20.50;74.70;;;;;;5059203;28;20207;-62
2023/03/21 00:31:27;;;;;;;1.20;1.08;;;20.50;74.70;;;;;;5060625;28;20227;-63
2023/03/21 00:33:53;;;;;;;1.85;1.50;;;20.50;74.70;;;;;;5061759;28;20661;-62
2023/03/21 00:36:20;;;;;;;1.50;0.90;;;20.50;74.80;;;;;;5056944;28;20194;-67
2023/03/21 00:38:47;;;;;;;1.50;1.00;;;20.50;74.80;;;;;;5055503;28;20199;-64
2023/03/21 00:41:17;;;;;;;1.52;1.42;;;20.50;74.80;;;;;;5053849;28;20209;-63
2023/03/21 00:43:43;;;;;;;2.85;1.00;;;20.40;74.70;;;;;;5060885;28;20210;-64
2023/03/21 00:46:10;;;;;;;1.00;0.80;;;20.40;74.70;;;;;;5061494;28;20210;-64
2023/03/21 00:48:41;;;;;;;1.40;1.00;;;20.40;74.70;;;;;;5059676;28;20202;-63
2023/03/21 00:51:14;;;;;;;1.40;1.10;;;20.40;74.80;;;;;;5059103;28;20222;-65
2023/03/21 00:53:41;;;;;;;1.75;1.48;;;20.40;74.80;;;;;;5055894;28;20282;-64
2023/03/21 00:56:09;;;;;;;1.20;1.05;;;20.40;74.70;;;;;;5056014;28;20191;-65
2023/03/21 00:58:35;;;;;;;1.10;0.80;;;20.40;74.80;;;;;;5056272;28;20206;-64
2023/03/21 01:01:03;;;;;;;1.50;1.10;;;20.40;74.80;;;;;;5055014;28;20576;-65
2023/03/21 01:03:30;;;;;;;2.75;0.98;;;20.40;74.80;;;;;;5055249;28;20651;-66
2023/03/21 01:06:06;;;;;;;1.10;0.80;;;20.40;74.80;;;;;;5054147;28;20203;-64
2023/03/21 01:08:34;;;;;;;1.92;1.20;;;20.40;74.80;;;;;;5057161;28;20210;-62
2023/03/21 01:11:03;;;;;;;1.00;0.70;;;20.40;74.80;;;;;;5052938;28;20229;-66
2023/03/21 01:13:30;;;;;;;3.05;1.30;;;20.40;74.80;;;;;;5048160;28;20191;-66
2023/03/21 01:15:57;;;;;;;1.00;0.90;;;20.30;74.70;;;;;;5056212;28;20218;-65
2023/03/21 01:18:27;;;;;;;2.67;1.48;;;20.30;74.70;;;;;;5061786;28;20203;-64
2023/03/21 01:20:55;;;;;;;1.88;1.17;;;20.30;74.70;;;;;;5059376;28;20206;-66
2023/03/21 01:23:23;;;;;;;2.28;1.00;;;20.30;74.80;;;;;;5059941;28;20582;-62
2023/03/21 01:25:51;;;;;;;5.35;1.00;;;20.30;74.70;;;;;;5063108;28;20650;-63
2023/03/21 01:28:18;;;;;;;1.10;0.90;;;20.30;74.80;;;;;;5063078;28;20210;-66
2023/03/21 01:30:46;;;;;;;1.40;0.88;;;20.30;74.80;;;;;;5064213;28;20210;-67
2023/03/21 01:33:13;;;;;;;1.30;1.00;;;20.30;74.80;;;;;;5061061;28;20209;-63
2023/03/21 01:35:39;;;;;;;2.70;1.65;;;20.30;74.80;;;;;;5062634;28;20207;-64
2023/03/21 01:38:06;;;;;;;2.05;1.00;;;20.30;74.80;;;;;;5058105;28;20895;-67
2023/03/21 01:40:34;;;;;;;1.30;0.85;;;20.30;74.80;;;;;;5059158;28;20190;-64
2023/03/21 01:43:01;;;;;;;1.10;1.00;;;20.20;74.70;;;;;;5058883;28;20328;-64
2023/03/21 01:46:07;;;;;;;1.30;0.95;;;20.20;74.70;;;;;;5066375;28;20202;-66
2023/03/21 01:48:36;;;;;;;1.20;0.90;;;20.20;74.70;;;;;;5066566;28;20566;-66
2023/03/21 01:51:04;;;;;;;1.40;1.00;;;20.20;74.70;;;;;;5067890;28;20214;-63
2023/03/21 01:53:34;;;;;;;2.38;1.20;;;20.20;74.70;;;;;;5068435;28;20194;-65
2023/03/21 01:56:07;;;;;;;2.50;1.10;;;20.20;74.80;;;;;;5061221;28;20207;-64
2023/03/21 01:58:34;;;;;;;1.70;1.00;;;20.20;74.70;;;;;;5056502;28;20221;-63
2023/03/21 02:01:03;;;;;;;1.50;1.00;;;20.20;74.80;;;;;;5055546;28;20194;-63
2023/03/21 02:03:36;;;;;;;1.35;0.98;;;20.20;74.80;;;;;;5054569;28;20667;-64
2023/03/21 02:06:09;;;;;;;1.33;0.90;;;20.20;74.80;;;;;;5056175;28;20215;-64
2023/03/21 02:08:36;;;;;;;1.55;1.10;;;20.20;74.70;;;;;;5055394;28;20207;-66
2023/03/21 02:11:05;;;;;;;1.58;1.27;;;20.20;74.80;;;;;;5054097;28;20602;-66
2023/03/21 02:13:31;;;;;;;1.30;0.98;;;20.10;74.60;;;;;;5048685;28;20198;-64
2023/03/21 02:16:01;;;;;;;1.23;1.10;;;20.10;74.60;;;;;;5053391;28;20186;-63
2023/03/21 02:18:34;;;;;;;1.10;0.98;;;20.10;74.60;;;;;;5061126;28;20201;-66
2023/03/21 02:21:28;;;;;;;1.48;1.00;;;20.10;74.60;;;;;;5057745;28;20202;-64
2023/03/21 02:24:18;;;;;;;1.45;0.90;;;20.10;74.70;;;;;;5042029;28;20209;-63
2023/03/21 02:27:03;;;;;;;1.23;1.08;;;20.10;74.60;;;;;;5057649;28;20202;-66
2023/03/21 02:30:07;;;;;;;1.75;1.20;;;20.10;74.60;;;;;;5063477;28;20206;-63
2023/03/21 02:32:48;;;;;;;1.20;0.88;;;20.10;74.60;;;;;;5025068;28;20729;-64
2023/03/21 02:35:33;;;;;;;1.40;1.00;;;20.20;74.70;;;;;;5060773;28;20544;-63
2023/03/21 02:38:05;;;;;;;1.30;0.90;;;20.10;74.60;;;;;;5061523;28;20218;-63
2023/03/21 02:40:36;;;;;;;1.50;1.10;;;20.10;74.50;;;;;;5057402;28;20234;-65
2023/03/21 02:43:07;;;;;;;1.85;1.02;;;20.10;74.50;;;;;;5059557;28;20199;-66
2023/03/21 02:45:41;;;;;;;1.15;0.98;;;20.10;74.50;;;;;;5057827;28;20199;-63
2023/03/21 02:48:11;;;;;;;1.23;1.02;;;20.10;74.50;;;;;;5060119;28;20195;-63
2023/03/21 02:50:43;;;;;;;1.30;1.00;;;20.10;74.50;;;;;;5056745;28;20567;-63
2023/03/21 02:53:14;;;;;;;1.65;1.10;;;20.10;74.50;;;;;;5059514;28;20225;-64
2023/03/21 02:55:42;;;;;;;1.55;1.00;;;20.10;74.50;;;;;;5059477;28;20202;-66
2023/03/21 02:58:13;;;;;;;1.17;0.90;;;20.10;74.50;;;;;;5055128;28;20205;-64
2023/03/21 03:00:41;;;;;;;2.33;1.13;;;20.10;74.50;;;;;;5055385;28;20199;-68
2023/03/21 03:03:08;;;;;;;1.45;1.10;;;20.10;74.50;;;;;;5059332;28;20202;-64
2023/03/21 03:05:40;;;;;;;1.10;1.00;;;20.10;74.50;;;;;;5055007;28;20199;-63
2023/03/21 03:08:21;;;;;;;1.23;1.02;;;20.10;74.50;;;;;;5056996;28;20199;-65
2023/03/21 03:11:03;;;;;;;1.98;1.23;;;20.10;74.50;;;;;;5061814;28;20195;-63
2023/03/21 03:13:43;;;;;;;1.38;0.90;;;20.10;74.50;;;;;;5053962;28;20248;-64
2023/03/21 03:16:20;;;;;;;1.10;0.90;;;20.10;74.50;;;;;;5057575;28;20195;-63
2023/03/21 03:18:52;;;;;;;2.00;1.27;;;20.10;74.50;;;;;;5064795;28;20393;-64
2023/03/21 03:21:25;;;;;;;1.20;0.85;;;20.10;74.50;;;;;;5063563;28;20194;-65
2023/03/21 03:23:57;;;;;;;1.70;1.60;;;20.10;74.50;;;;;;5064736;28;20281;-67
2023/03/21 03:26:28;;;;;;;1.20;1.02;;;20.00;74.40;;;;;;5066080;28;20577;-68
2023/03/21 03:29:00;;;;;;;1.30;1.00;;;20.00;74.40;;;;;;5064132;28;20194;-63
2023/03/21 03:31:31;;;;;;;1.67;0.90;;;20.00;74.40;;;;;;5063235;28;20579;-64
2023/03/21 03:34:01;;;;;;;1.40;1.10;;;20.00;74.40;;;;;;5058755;28;20203;-64
2023/03/21 03:36:35;;;;;;;1.00;0.80;;;20.00;74.40;;;;;;5059175;28;20203;-66
2023/03/21 03:39:07;;;;;;;1.25;1.00;;;20.00;74.40;;;;;;5061274;28;20216;-65
2023/03/21 03:41:40;;;;;;;1.20;0.90;;;20.00;74.40;;;;;;5066140;28;20199;-68
2023/03/21 03:44:08;;;;;;;1.17;0.90;;;20.00;74.40;;;;;;5065118;28;20317;-63
2023/03/21 03:46:39;;;;;;;1.15;1.00;;;20.00;74.40;;;;;;5064710;28;20195;-63
2023/03/21 03:49:12;;;;;;;1.10;1.00;;;20.00;74.40;;;;;;5062773;28;20198;-64
2023/03/21 03:51:45;;;;;;;2.03;1.30;;;20.00;74.40;;;;;;5053285;28;20219;-64
2023/03/21 03:54:18;;;;;;;1.20;0.80;;;20.00;74.40;;;;;;5054107;28;20551;-67
2023/03/21 03:56:45;;;;;;;1.50;1.00;;;20.00;74.40;;;;;;5052261;28;20198;-63
2023/03/21 03:59:18;;;;;;;1.13;0.98;;;20.00;74.40;;;;;;5054806;28;20199;-63
2023/03/21 04:01:45;;;;;;;2.17;1.13;;;20.00;74.40;;;;;;5050105;28;20213;-64
2023/03/21 04:04:12;;;;;;;1.20;0.98;;;20.00;74.40;;;;;;5052953;28;20560;-65
2023/03/21 04:06:39;;;;;;;1.10;0.90;;;20.00;74.40;;;;;;5051603;28;20195;-64
2023/03/21 04:09:07;;;;;;;1.02;0.80;;;19.90;74.30;;;;;;5047088;28;21981;-63
2023/03/21 04:11:35;;;;;;;1.25;0.85;;;20.00;74.40;;;;;;5050362;28;20215;-65
2023/03/21 04:14:01;;;;;;;2.00;1.10;;;19.90;74.30;;;;;;5048789;28;20694;-63
2023/03/21 04:16:30;;;;;;;2.08;1.20;;;19.90;74.30;;;;;;5052119;28;20199;-64
2023/03/21 04:18:56;;;;;;;1.58;1.33;;;19.90;74.30;;;;;;5054931;28;20191;-63
2023/03/21 04:21:23;;;;;;;1.58;0.95;;;19.90;74.30;;;;;;5055535;28;20543;-63
2023/03/21 04:23:53;;;;;;;2.00;1.35;;;19.90;74.30;;;;;;5052113;28;20198;-65
2023/03/21 04:26:21;;;;;;;1.20;0.95;;;19.90;74.30;;;;;;5053971;28;20698;-67
2023/03/21 04:28:49;;;;;;;1.30;0.90;;;19.90;74.30;;;;;;5054739;28;20666;-63
2023/03/21 04:31:17;;;;;;;1.00;0.80;;;19.90;74.30;;;;;;5055878;28;20226;-66
2023/03/21 04:33:44;;;;;;;1.20;0.90;;;19.90;74.30;;;;;;5052668;28;20309;-63
2023/03/21 04:36:24;;;;;;;2.45;1.08;;;19.90;74.30;;;;;;5048553;28;20215;-64
2023/03/21 04:38:51;;;;;;;1.38;0.80;;;19.90;74.30;;;;;;5050954;28;20195;-64
2023/03/21 04:41:18;;;;;;;1.08;0.82;;;19.90;74.30;;;;;;5051748;28;20203;-68
2023/03/21 04:43:46;;;;;;;1.10;1.00;;;19.90;74.30;;;;;;5049308;28;20593;-67
2023/03/21 04:46:14;;;;;;;0.90;0.77;;;19.90;74.30;;;;;;5061008;28;20199;-64
2023/03/21 04:48:41;;;;;;;1.30;1.13;;;19.90;74.30;;;;;;5055533;28;20203;-64
2023/03/21 04:51:07;;;;;;;1.27;1.05;;;19.90;74.30;;;;;;5054330;28;20206;-64
2023/03/21 04:53:34;;;;;;;2.10;1.20;;;19.90;74.30;;;;;;5056468;28;20223;-65
2023/03/21 04:56:01;;;;;;;1.67;1.00;;;19.90;74.30;;;;;;5057245;28;20201;-63
2023/03/21 04:58:29;;;;;;;0.93;0.80;;;19.90;74.30;;;;;;5056315;28;20540;-64
2023/03/21 05:00:56;;;;;;;1.20;0.90;;;19.90;74.30;;;;;;5053805;28;20219;-63
2023/03/21 05:03:24;;;;;;;1.20;0.90;;;19.80;74.20;;;;;;5057244;28;20199;-67
2023/03/21 05:05:51;;;;;;;1.55;0.85;;;19.80;74.20;;;;;;5054916;28;20310;-63
2023/03/21 05:08:18;;;;;;;1.27;0.90;;;19.80;74.20;;;;;;5056783;28;20201;-63
2023/03/21 05:10:45;;;;;;;1.02;0.88;;;19.80;74.20;;;;;;5056286;28;20202;-63
2023/03/21 05:13:11;;;;;;;1.15;0.93;;;19.80;74.20;;;;;;5062005;28;20250;-64
2023/03/21 05:15:38;;;;;;;1.48;1.00;;;19.80;74.20;;;;;;5050739;28;20210;-64
2023/03/21 05:18:10;;;;;;;1.55;1.13;;;19.80;74.20;;;;;;5061574;28;20231;-65
2023/03/21 05:20:41;;;;;;;1.10;0.90;;;19.80;74.20;;;;;;5064585;28;20230;-66
2023/03/21 05:23:09;;;;;;;1.75;1.00;;;19.80;74.20;;;;;;5062736;28;20234;-63
2023/03/21 05:25:36;;;;;;;1.20;0.82;;;19.80;74.20;;;;;;5059671;28;20199;-64
2023/03/21 05:28:04;;;;;;;0.95;0.80;;;19.80;74.20;;;;;;5058369;28;20374;-64
2023/03/21 05:30:31;;;;;;;1.10;0.90;;;19.80;74.20;;;;;;5060780;28;20192;-64
2023/03/21 05:32:58;;;;;;;1.25;1.00;;;19.80;74.20;;;;;;5060027;28;20218;-64
2023/03/21 05:35:25;;;;;;;1.50;1.20;;;19.80;74.20;;;;;;5061735;28;20229;-68
2023/03/21 05:37:53;;;;;;;1.33;0.98;;;19.80;74.20;;;;;;5064903;28;20203;-63
2023/03/21 05:40:20;;;;;;;1.25;0.80;;;19.80;74.20;;;;;;5057737;28;20662;-68
2023/03/21 05:42:47;;;;;;;1.33;0.80;;;19.80;74.20;;;;;;5063759;28;21595;-67
2023/03/21 05:45:14;;;;;;;1.63;0.93;;;19.80;74.20;;;;;;5057538;28;20217;-64
2023/03/21 05:47:41;;;;;;;1.20;1.08;;;19.80;74.20;;;;;;5060755;28;20195;-64
2023/03/21 05:50:09;;;;;;;1.33;0.90;;;19.80;74.20;;;;;;5059872;28;20199;-63
2023/03/21 05:52:36;;;;;;;1.15;0.80;;;19.80;74.20;;;;;;5060585;28;20690;-68
2023/03/21 05:55:05;;;;;;;1.40;1.20;;;19.70;74.10;;;;;;5056776;28;20225;-65
2023/03/21 05:57:37;;;;;;;1.30;1.05;;;19.70;74.10;;;;;;5054392;28;20203;-64
2023/03/21 06:00:05;;;;;;;1.27;1.00;;;19.70;74.00;;;;;;5059237;28;20651;-68
2023/03/21 06:02:32;;;;;;;1.10;0.90;;;19.70;74.10;;;;;;5057904;28;20226;-63
2023/03/21 06:04:59;;;;;;;1.20;1.00;;;19.70;74.00;;;;;;5060275;28;20569;-65
2023/03/21 06:07:25;;;;;;;0.90;0.75;;;19.70;74.00;;;;;;5058398;28;22222;-65
2023/03/21 06:09:52;;;;;;;1.40;0.80;;;19.70;74.10;;;;;;5060192;28;20202;-62
2023/03/21 06:12:20;;;;;;;1.85;0.90;;;19.70;74.00;;;;;;5057071;28;21558;-64
2023/03/21 06:14:47;;;;;;;1.02;0.90;;;19.70;74.00;;;;;;5046798;28;20225;-68
2023/03/21 06:17:14;;;;;;;1.35;1.00;;;19.70;74.10;;;;;;5049858;28;20194;-66
2023/03/21 06:19:41;;;;;;;1.10;1.00;;;19.70;74.00;;;;;;5057042;28;20662;-68
2023/03/21 06:22:08;;;;;;;1.15;0.85;;;19.70;74.00;;;;;;5051257;28;20219;-65
2023/03/21 06:24:34;;;;;;;1.20;0.80;;;19.80;74.00;;;;;;5057079;28;20210;-62
2023/03/21 06:27:01;;;;;;;1.00;0.80;;;19.80;73.90;;;;;;5055220;28;20202;-66
2023/03/21 06:29:30;;;;;;;1.20;0.90;;;19.80;73.90;;;;;;5055957;28;20202;-65
2023/03/21 06:31:56;;;;;;;1.75;1.10;;;19.80;73.90;;;;;;5055611;28;20206;-64
2023/03/21 06:34:23;;;;;;;1.20;0.80;;;19.90;74.00;;;;;;5056762;28;20194;-67
2023/03/21 06:36:50;;;;;;;1.50;0.93;;;19.90;73.90;;;;;;5054768;28;20647;-66
2023/03/21 06:39:17;;;;;;;1.88;0.98;;;19.90;73.90;;;;;;5052806;28;20650;-64
2023/03/21 06:41:44;;;;;;;1.00;0.70;;;19.90;73.90;;;;;;5051436;28;20198;-68
2023/03/21 06:44:11;;;;;;;1.17;1.00;;;19.90;73.90;;;;;;5051176;28;20230;-64
2023/03/21 06:46:39;;;;;;;1.08;0.80;;;19.90;73.90;;;;;;5057786;28;20210;-65
2023/03/21 06:49:05;;;;;;;1.60;0.70;;;19.90;73.90;;;;;;5059870;28;20207;-66
2023/03/21 06:51:32;;;;;;;3.08;1.90;;;19.90;73.90;;;;;;5060343;28;20206;-64
2023/03/21 06:53:59;;;;;;;1.33;0.90;;;19.90;73.90;;;;;;5059721;28;20219;-63
2023/03/21 06:56:26;;;;;;;1.55;1.05;;;19.90;73.90;;;;;;5060350;28;20207;-64
2023/03/21 06:58:52;;;;;;;1.20;0.70;;;19.90;73.90;;;;;;5060248;28;20203;-64
2023/03/21 07:01:19;;;;;;;1.40;1.10;;;19.90;73.80;;;;;;5057763;28;20190;-63
2023/03/21 07:03:47;;;;;;;1.10;0.90;;;19.90;73.80;;;;;;5060451;28;20241;-63
2023/03/21 07:06:15;;;;;;;1.17;1.00;;;19.90;73.80;;;;;;5058385;28;20187;-66
2023/03/21 07:08:42;;;;;;;1.20;0.80;;;19.90;73.80;;;;;;5058431;28;20649;-63
2023/03/21 07:11:09;;;;;;;0.98;0.88;;;19.90;73.70;;;;;;5061212;28;20207;-63
2023/03/21 07:13:36;;;;;;;1.10;0.95;;;19.90;73.70;;;;;;5062938;28;20216;-64
2023/03/21 07:16:03;;;;;;;1.30;0.90;;;20.00;73.80;;;;;;5057089;28;20202;-63
2023/03/21 07:18:30;;;;;;;1.13;0.80;;;20.00;73.80;;;;;;5065318;28;20201;-64
2023/03/21 07:20:58;;;;;;;1.17;0.88;;;20.00;73.80;;;;;;5061317;28;20214;-63
2023/03/21 07:23:27;;;;;;;0.90;0.80;;;20.00;73.80;;;;;;5066459;28;21380;-65
2023/03/21 07:25:54;;;;;;;1.10;0.93;;;20.00;73.80;;;;;;5066732;28;20202;-65
2023/03/21 07:28:21;;;;;;;1.58;1.00;;;20.00;73.80;;;;;;5059884;28;20291;-66
2023/03/21 07:30:54;;;;;;;1.20;0.93;;;20.00;73.80;;;;;;5069616;28;20203;-66
2023/03/21 07:33:21;;;;;;;1.20;0.80;;;20.10;74.00;;;;;;5066590;28;20698;-66
2023/03/21 07:35:48;;;;;;;1.10;0.80;;;20.10;74.00;;;;;;5059617;28;20291;-64
2023/03/21 07:38:17;;;;;;;0.90;0.70;;;20.10;74.00;;;;;;5064099;28;20659;-63
2023/03/21 07:40:44;;;;;;;1.08;0.82;;;20.10;74.00;;;;;;5062641;28;20196;-64
2023/03/21 07:43:10;;;;;;;1.10;0.90;;;20.10;74.10;;;;;;5066213;28;20332;-62
2023/03/21 07:45:37;;;;;;;1.80;1.00;;;20.00;74.60;;;;;;5058742;28;20195;-63
2023/03/21 07:48:04;;;;;;;1.00;0.90;;;20.00;75.00;;;;;;5058917;28;20689;-64
2023/03/21 07:50:31;;;;;;;1.10;0.90;;;20.00;75.40;;;;;;5057076;28;20196;-66
2023/03/21 07:52:58;;;;;;;2.00;0.95;;;20.00;75.90;;;;;;5057002;28;21261;-64
2023/03/21 07:55:26;;;;;;;1.33;0.85;;;20.00;76.60;;;;;;5058954;28;20569;-65
2023/03/21 07:57:54;;;;;;;2.30;1.05;;;20.00;76.60;;;;;;5060030;28;20642;-63
2023/03/21 08:00:22;;;;;;;1.58;1.20;;;20.00;76.50;;;;;;5058541;28;20198;-64
2023/03/21 08:02:53;;;;;;;2.60;0.90;;;20.00;76.20;;;;;;5063251;28;20263;-62
2023/03/21 08:05:20;;;;;;;1.60;1.05;;;20.10;76.30;;;;;;5061966;28;20222;-58
2023/03/21 08:07:47;;;;;;;2.50;1.20;;;20.10;76.30;;;;;;5054291;28;20202;-61
2023/03/21 08:10:14;;;;;;;2.50;0.90;;;20.10;76.20;;;;;;5055734;28;20198;-63
2023/03/21 08:12:42;;;;;;;2.90;1.05;;;20.10;76.10;;;;;;5054141;28;20195;-62
2023/03/21 08:15:10;;;;;;;2.65;1.15;;;20.10;76.20;;;;;;5054032;28;22106;-61
2023/03/21 08:17:38;;;;;;;1.20;0.90;;;20.10;76.50;;;;;;5056776;28;20297;-61
2023/03/21 08:20:07;;;;;;;1.65;1.20;;;20.10;76.40;;;;;;5064688;28;20247;-63
2023/03/21 08:22:34;;;;;;;1.27;0.98;;;20.10;76.50;;;;;;5057657;28;20222;-67
2023/03/21 08:25:02;;;;;;;1.23;0.93;;;20.10;76.50;;;;;;5058715;28;20195;-63
2023/03/21 08:27:29;;;;;;;1.17;0.85;;;20.20;76.60;;;;;;5061165;28;20203;-63
2023/03/21 08:29:57;;;;;;;3.10;1.35;;;20.20;76.60;;;;;;5068811;28;20237;-64
2023/03/21 08:32:28;;;;;;;2.22;0.90;;;20.20;77.30;;;;;;5057098;28;20195;-63
2023/03/21 08:34:56;;;;;;;1.33;1.00;;;20.20;76.50;;;;;;5059303;28;20276;-64
2023/03/21 08:37:23;;;;;;;0.95;0.80;;;20.20;76.50;;;;;;5063118;28;20616;-63
2023/03/21 08:39:50;;;;;;;2.15;0.93;;;20.20;76.50;;;;;;5059365;28;20221;-63
2023/03/21 08:42:17;;;;;;;1.23;1.00;;;20.20;76.40;;;;;;5062356;28;20206;-67
2023/03/21 08:44:44;;;;;;;1.27;0.98;;;20.20;76.40;;;;;;5064937;28;20646;-63
2023/03/21 08:47:12;;;;;;;1.27;1.00;;;20.20;76.30;;;;;;5065316;28;20250;-63
2023/03/21 08:49:39;;;;;;;2.00;0.98;;;20.20;76.30;;;;;;5063197;28;20195;-63
2023/03/21 08:52:06;;;;;;;2.47;1.00;;;20.20;76.20;;;;;;5060580;28;20200;-64
2023/03/21 08:54:33;;;;;;;1.80;1.08;;;20.20;76.20;;;;;;5060210;28;20685;-63
2023/03/21 08:57:00;;;;;;;1.42;1.10;;;20.20;76.10;;;;;;5061690;28;20207;-64
2023/03/21 08:59:27;;;;;;;3.35;1.25;;;20.20;76.10;;;;;;5057558;28;20306;-65
2023/03/21 09:01:53;;;;;;;1.10;0.90;;;20.20;76.00;;;;;;5061171;28;20651;-63
2023/03/21 09:04:24;;;;;;;1.30;0.90;;;20.20;76.00;;;;;;5060763;28;20202;-62
2023/03/21 09:06:51;;;;;;;1.70;1.10;;;20.30;76.00;;;;;;5060243;28;20201;-64
2023/03/21 09:09:18;;;;;;;1.13;0.90;;;20.30;76.00;;;;;;5058028;28;20202;-64
2023/03/21 09:11:45;;;;;;;1.25;1.00;;;20.30;75.90;;;;;;5061596;28;20686;-64
2023/03/21 09:14:11;;;;;;;1.00;0.80;;;20.30;75.90;;;;;;5063700;28;20243;-62
2023/03/21 09:16:38;;;;;;;1.73;1.27;;;20.30;76.70;;;;;;5062227;28;20573;-64
2023/03/21 09:19:07;;;;;;;2.65;0.90;;;20.30;75.20;;;;;;5066089;28;20602;-63
2023/03/21 09:21:37;;;;;;;1.50;1.00;;;20.30;75.80;;;;;;5064940;28;20714;-62
2023/03/21 09:24:04;;;;;;;1.10;0.95;;;20.30;75.70;;;;;;5060664;28;20295;-63
2023/03/21 09:26:31;;;;;;;1.30;1.00;;;20.30;75.70;;;;;;5064380;28;20187;-65
2023/03/21 09:28:59;;;;;;;1.02;0.82;;;20.30;75.70;;;;;;5062634;28;20196;-64
2023/03/21 09:31:27;;;;;;;1.65;1.00;;;20.30;75.60;;;;;;5064476;28;20205;-63
2023/03/21 09:33:55;;;;;;;1.27;1.08;;;20.30;75.60;;;;;;5069347;28;20639;-63
2023/03/21 09:36:25;;;;;;;1.17;1.00;;;20.30;75.60;;;;;;5059880;28;20329;-65
2023/03/21 09:38:53;;;;;;;1.08;0.88;;;20.30;76.30;;;;;;5068274;28;20260;-63
2023/03/21 09:41:32;;;;;;;1.23;0.85;;;20.30;76.30;;;;;;5058994;28;20199;-63
2023/03/21 09:44:16;;;;;;;3.67;1.05;;;20.30;75.40;;;;;;5057264;28;20582;-55
2023/03/21 09:46:50;;;;;;;1.70;1.00;;;20.40;75.70;;;;;;5061289;28;20658;-63
2023/03/21 09:49:20;;;;;;;4.80;1.67;;;20.40;75.60;;;;;;5054374;28;20201;-73
2023/03/21 09:51:51;;;;;;;7.97;1.30;;;20.40;75.60;;;;;;5061797;28;20195;-66
2023/03/21 09:54:26;;;;;;;1.55;1.25;;;20.40;75.70;;;;;;5065664;28;20315;-68
2023/03/21 09:56:56;;;;;;;2.65;1.67;;;20.40;75.70;;;;;;5062572;28;20206;-68
2023/03/21 09:59:31;;;;;;;1.58;1.30;;;20.40;75.70;;;;;;5061571;28;20196;-68
2023/03/21 10:02:00;;;;;;;2.75;0.90;;;20.40;75.80;;;;;;5063580;28;20269;-66
2023/03/21 10:04:28;;;;;;;2.63;1.27;;;20.40;75.80;;;;;;5061569;28;20728;-64
2023/03/21 10:06:58;;;;;;;1.20;1.00;;;20.40;76.20;;;;;;5062475;28;20201;-61
2023/03/21 10:09:28;;;;;;;1.48;1.20;;;20.40;76.30;;;;;;5062517;28;20689;-64
2023/03/21 10:11:58;;;;;;;1.23;1.13;;;20.40;76.30;;;;;;5056210;28;20595;-65
2023/03/21 10:14:30;;;;;;;1.70;1.30;;;20.50;76.40;;;;;;5064962;28;20218;-66
2023/03/21 10:16:59;;;;;;;1.73;1.00;;;20.50;76.40;;;;;;5059992;28;20191;-58
2023/03/21 10:19:28;;;;;;;2.40;1.15;;;20.50;76.40;;;;;;5058075;28;20281;-60
2023/03/21 10:21:55;;;;;;;3.17;0.90;;;20.50;76.40;;;;;;5062758;28;20214;-59
2023/03/21 10:24:24;;;;;;;1.90;1.30;;;20.50;76.40;;;;;;5059985;28;20196;-59
2023/03/21 10:26:54;;;;;;;1.20;1.00;;;20.50;76.50;;;;;;5057008;28;20195;-56
2023/03/21 10:29:25;;;;;;;1.30;1.00;;;20.50;76.50;;;;;;5056498;28;20200;-55
2023/03/21 10:31:54;;;;;;;2.85;1.10;;;20.60;77.50;;;;;;5061038;28;20206;-68
2023/03/21 10:34:28;;;;;;;2.58;1.20;;;20.60;76.70;;;;;;5060747;28;20219;-63
2023/03/21 10:36:55;;;;;;;1.73;1.10;;;20.60;76.80;;;;;;5057784;28;20199;-65
2023/03/21 10:39:26;;;;;;;2.20;1.00;;;20.60;76.80;;;;;;5057607;28;20191;-65
2023/03/21 10:41:55;;;;;;;1.25;0.90;;;20.60;76.80;;;;;;5063345;28;20195;-66
2023/03/21 10:44:24;;;;;;;1.88;1.08;;;20.60;76.90;;;;;;5064368;28;20203;-61
2023/03/21 10:46:52;;;;;;;1.38;0.90;;;20.60;77.60;;;;;;5058413;28;20192;-61
2023/03/21 10:49:20;;;;;;;2.00;1.30;;;20.60;76.80;;;;;;5065398;28;20191;-60
2023/03/21 10:51:49;;;;;;;1.20;1.00;;;20.60;76.80;;;;;;5065336;28;20195;-62
2023/03/21 10:54:19;;;;;;;1.55;1.30;;;20.60;76.90;;;;;;5068910;28;20218;-62
2023/03/21 10:56:55;;;;;;;1.27;0.90;;;20.70;77.00;;;;;;5054275;28;20210;-61
2023/03/21 10:59:26;;;;;;;1.50;1.00;;;20.70;77.00;;;;;;5053563;28;20201;-57
2023/03/21 11:01:55;;;;;;;1.40;1.30;;;20.70;76.90;;;;;;5052222;28;20211;-61
2023/03/21 11:04:25;;;;;;;1.80;1.30;;;20.70;77.70;;;;;;5051215;28;20484;-63
2023/03/21 11:06:54;;;;;;;2.20;1.00;;;20.70;77.00;;;;;;5053297;28;20527;-62
2023/03/21 11:09:23;;;;;;;1.10;1.00;;;20.70;77.00;;;;;;5055627;28;20813;-62
2023/03/21 11:11:53;;;;;;;1.90;1.10;;;20.80;77.10;;;;;;5059372;28;20844;-64
2023/03/21 11:14:33;;;;;;;1.50;1.00;;;20.80;77.10;;;;;;5054845;28;20492;-64
2023/03/21 11:17:00;;;;;;;1.30;1.00;;;20.80;77.10;;;;;;5062810;28;20485;-64
2023/03/21 11:19:31;;;;;;;1.30;1.00;;;20.80;77.10;;;;;;5060515;28;20484;-65
2023/03/21 11:21:59;;;;;;;1.20;0.90;;;20.80;77.10;;;;;;5064409;28;20505;-62
2023/03/21 11:24:30;;;;;;;1.30;1.00;;;20.80;77.10;;;;;;5067156;28;20199;-66
2023/03/21 11:26:58;;;;;;;1.30;1.00;;;20.80;77.10;;;;;;5071145;28;20677;-63
2023/03/21 11:29:32;;;;;;;1.20;0.97;;;20.90;77.20;;;;;;5063213;28;20195;-64
2023/03/21 11:32:01;;;;;;;2.00;1.17;;;20.90;77.10;;;;;;5064275;28;20461;-66
2023/03/21 11:34:38;;;;;;;3.70;1.77;;;20.80;77.10;;;;;;5068178;28;20499;-68
2023/03/21 11:37:06;;;;;;;2.20;1.73;;;20.70;77.00;;;;;;5065318;28;20206;-68
2023/03/21 11:39:38;;;;;;;3.80;2.00;;;20.60;76.80;;;;;;5070108;28;20195;-68
2023/03/21 11:42:06;;;;;;;2.25;1.88;;;20.50;76.80;;;;;;5068311;28;20194;-68
2023/03/21 11:44:43;;;;;;;5.65;2.03;;;20.40;76.60;;;;;;5057229;28;20239;-68
2023/03/21 11:47:11;;;;;;;4.60;2.25;;;20.40;76.60;;;;;;5065409;28;20209;-64
2023/03/21 11:49:38;;;;;;;3.67;1.60;;;20.30;76.50;;;;;;5053243;28;20599;-69
2023/03/21 11:52:18;;;;;;;2.42;1.50;;;20.40;76.50;;;;;;5052903;28;20218;-69
2023/03/21 11:55:06;;;;;;;2.15;1.38;;;20.50;76.50;;;;;;5050156;28;20511;-69
2023/03/21 11:57:39;;;;;;;2.65;1.60;;;20.60;76.30;;;;;;5052460;28;20246;-66
2023/03/21 12:00:16;;;;;;;3.60;1.50;;;20.70;76.40;;;;;;5053114;28;20205;-65
2023/03/21 12:03:01;;;;;;;3.15;1.52;;;20.70;76.40;;;;;;5052369;28;20215;-65
2023/03/21 12:05:33;;;;;;;2.60;1.50;;;20.80;76.50;;;;;;5050030;28;20195;-66
2023/03/21 12:08:05;;;;;;;2.53;1.10;;;20.80;76.40;;;;;;5053262;28;20462;-71
2023/03/21 12:10:40;;;;;;;1.67;1.17;;;20.90;76.40;;;;;;5059303;28;20452;-69
2023/03/21 12:13:20;;;;;;;2.00;1.37;;;20.90;76.40;;;;;;5050365;28;20205;-71
2023/03/21 12:15:57;;;;;;;1.40;1.30;;;20.90;76.40;;;;;;5055035;28;20985;-66
2023/03/21 12:18:56;;;;;;;2.30;1.20;;;20.90;76.40;;;;;;5053748;28;20459;-61
2023/03/21 12:21:31;;;;;;;1.77;1.30;;;21.00;76.50;;;;;;5051556;28;20461;-59
2023/03/21 12:24:06;;;;;;;2.27;1.13;;;21.00;76.50;;;;;;5059933;28;20461;-68
2023/03/21 12:26:41;;;;;;;1.73;1.20;;;21.00;76.40;;;;;;5058813;28;20468;-65
2023/03/21 12:29:26;;;;;;;2.13;1.10;;;21.00;76.40;;;;;;5067771;28;20991;-63
2023/03/21 12:32:06;;;;;;;1.60;1.30;;;21.00;76.40;;;;;;5065924;28;20489;-70
2023/03/21 12:35:08;;;;;;;2.43;1.30;;;21.00;76.40;;;;;;5060189;28;21022;-68
2023/03/21 12:37:47;;;;;;;2.63;1.03;;;21.10;76.50;;;;;;5044453;28;20856;-67
2023/03/21 12:40:21;;;;;;;1.77;1.20;;;21.10;76.50;;;;;;5049487;28;20751;-67
2023/03/21 12:43:16;;;;;;;2.70;1.00;;;21.10;76.50;;;;;;5049740;28;20461;-64
2023/03/21 12:45:48;;;;;;;1.83;1.40;;;21.10;76.50;;;;;;5054984;28;21000;-62
2023/03/21 12:48:21;;;;;;;1.80;1.37;;;21.10;76.50;;;;;;5051609;28;20469;-65
2023/03/21 12:50:50;;;;;;;3.40;1.10;;;21.10;76.50;;;;;;5048745;28;20464;-63
2023/03/21 12:53:42;;;;;;;1.33;0.90;;;21.10;76.50;;;;;;5053341;28;20468;-63
2023/03/21 12:56:13;;;;;;;1.20;1.00;;;21.10;76.50;;;;;;5054201;28;20500;-65
2023/03/21 12:58:46;;;;;;;1.60;1.13;;;21.10;76.50;;;;;;5050522;28;20807;-63
2023/03/21 13:01:15;;;;;;;1.63;1.10;;;21.10;76.50;;;;;;5055732;28;20463;-65
2023/03/21 13:03:49;;;;;;;1.60;1.10;;;21.10;76.60;;;;;;5057907;28;20544;-64